createdAt,value
2023-03-31T00:01:34.398Z,5.07
2023-03-31T00:04:16.442Z,5.28
2023-03-31T00:06:48.676Z,8.98
2023-03-31T00:09:20.949Z,5.95
2023-03-31T00:11:53.471Z,7.53
2023-03-31T00:14:28.043Z,5.95
2023-03-31T00:16:56.127Z,7.43
2023-03-31T00:19:28.640Z,11.65
2023-03-31T00:22:06.416Z,8.45
2023-03-31T00:24:34.201Z,8.60
2023-03-31T00:27:08.424Z,5.13
2023-03-31T00:29:36.406Z,10.38
2023-03-31T00:32:09.388Z,9.05
2023-03-31T00:34:39.383Z,8.88
2023-03-31T00:45:27.490Z,7.38
2023-03-31T00:48:07.282Z,11.02
2023-03-31T00:50:53.019Z,6.47
2023-03-31T00:53:27.428Z,6.68
2023-03-31T00:55:57.597Z,8.77
2023-03-31T00:58:29.419Z,8.73
2023-03-31T01:01:06.021Z,5.20
2023-03-31T01:03:36.727Z,6.93
2023-03-31T01:06:08.409Z,10.88
2023-03-31T01:08:37.775Z,9.23
2023-03-31T01:11:12.835Z,8.73
2023-03-31T01:13:42.445Z,11.30
2023-03-31T01:16:16.213Z,9.07
2023-03-31T01:18:51.120Z,8.20
2023-03-31T01:22:06.971Z,5.88
2023-03-31T01:25:02.073Z,7.03
2023-03-31T01:27:44.102Z,11.15
2023-03-31T01:30:48.540Z,10.65
2023-03-31T01:33:39.599Z,8.38
2023-03-31T01:36:42.858Z,9.07
2023-03-31T01:39:12.412Z,7.20
2023-03-31T01:41:45.776Z,8.82
2023-03-31T01:44:38.251Z,8.50
2023-03-31T01:47:22.789Z,12.25
2023-03-31T01:50:11.147Z,7.75
2023-03-31T01:52:50.499Z,9.80
2023-03-31T01:56:12.207Z,10.70
2023-03-31T01:58:58.156Z,6.25
2023-03-31T02:01:38.785Z,7.97
2023-03-31T02:04:33.460Z,7.60
2023-03-31T02:07:06.576Z,10.30
2023-03-31T02:09:43.503Z,7.15
2023-03-31T02:12:12.679Z,6.53
2023-03-31T02:14:43.947Z,10.23
2023-03-31T02:17:20.493Z,8.65
2023-03-31T02:19:53.600Z,7.97
2023-03-31T02:22:24.053Z,8.23
2023-03-31T02:24:53.378Z,8.80
2023-03-31T02:27:32.370Z,8.80
2023-03-31T02:30:04.872Z,7.80
2023-03-31T02:32:41.661Z,9.85
2023-03-31T02:35:16.737Z,13.20
2023-03-31T02:37:48.738Z,9.02
2023-03-31T02:40:23.753Z,9.02
2023-03-31T02:42:52.796Z,9.70
2023-03-31T02:45:45.583Z,8.55
2023-03-31T02:48:16.597Z,7.13
2023-03-31T02:51:09.317Z,8.68
2023-03-31T02:53:38.936Z,8.88
2023-03-31T02:56:27.905Z,8.25
2023-03-31T02:59:18.628Z,8.55
2023-03-31T03:02:10.951Z,9.93
2023-03-31T03:04:59.465Z,6.57
2023-03-31T03:07:39.272Z,7.90
2023-03-31T03:10:47.196Z,10.00
2023-03-31T03:13:31.385Z,6.97
2023-03-31T03:16:14.286Z,10.00
2023-03-31T03:18:45.988Z,11.95
2023-03-31T03:21:12.773Z,6.18
2023-03-31T03:23:40.023Z,10.45
2023-03-31T03:26:09.281Z,9.68
2023-03-31T03:28:36.948Z,13.02
2023-03-31T03:31:03.808Z,9.05
2023-03-31T03:33:30.820Z,7.82
2023-03-31T03:35:59.410Z,7.15
2023-03-31T03:38:31.016Z,7.60
2023-03-31T03:40:59.924Z,9.23
2023-03-31T03:43:26.713Z,7.68
2023-03-31T03:45:54.675Z,9.05
2023-03-31T03:48:22.015Z,10.07
2023-03-31T03:50:49.092Z,12.98
2023-03-31T03:58:43.215Z,11.40
2023-03-31T04:01:10.038Z,7.45
2023-03-31T04:03:39.082Z,7.15
2023-03-31T04:06:06.434Z,15.18
2023-03-31T04:08:33.640Z,10.60
2023-03-31T04:11:00.787Z,11.10
2023-03-31T04:13:36.441Z,10.25
2023-03-31T04:16:11.526Z,6.30
2023-03-31T04:18:42.918Z,11.18
2023-03-31T04:21:23.376Z,8.70
2023-03-31T04:24:00.748Z,9.30
2023-03-31T04:26:43.574Z,9.35
2023-03-31T04:29:27.263Z,9.70
2023-03-31T04:34:44.317Z,10.13
2023-03-31T04:37:14.778Z,7.90
2023-03-31T04:39:43.586Z,7.72
2023-03-31T04:53:20.324Z,12.90
2023-03-31T04:55:53.081Z,6.75
2023-03-31T04:58:29.609Z,10.40
2023-03-31T05:00:58.920Z,10.90
2023-03-31T05:03:29.559Z,7.60
2023-03-31T05:05:57.192Z,10.05
2023-03-31T05:08:38.672Z,11.80
2023-03-31T05:11:22.614Z,10.05
2023-03-31T05:16:41.188Z,8.50
2023-03-31T05:19:12.706Z,8.10
2023-03-31T05:21:47.834Z,8.37
2023-03-31T05:24:14.685Z,8.35
2023-03-31T05:26:42.434Z,8.57
2023-03-31T05:29:10.507Z,11.13
2023-03-31T05:31:42.012Z,10.80
2023-03-31T05:34:13.795Z,10.52
2023-03-31T05:36:49.108Z,11.80
2023-03-31T05:39:16.575Z,10.32
2023-03-31T05:41:50.565Z,11.98
2023-03-31T05:44:29.412Z,12.25
2023-03-31T05:47:00.229Z,11.23
2023-03-31T05:49:32.698Z,7.35
2023-03-31T05:52:14.238Z,10.77
2023-03-31T05:54:43.339Z,11.35
2023-03-31T05:57:12.336Z,9.23
2023-03-31T05:59:43.218Z,8.88
2023-03-31T06:02:17.311Z,10.75
2023-03-31T06:04:44.445Z,13.52
2023-03-31T06:07:15.791Z,12.05
2023-03-31T06:09:45.840Z,11.50
2023-03-31T06:12:13.145Z,10.20
2023-03-31T06:14:41.839Z,10.68
2023-03-31T06:17:10.619Z,11.38
2023-03-31T06:19:40.699Z,12.20
2023-03-31T06:22:10.992Z,11.57
2023-03-31T06:24:37.870Z,13.65
2023-03-31T06:27:16.887Z,11.43
2023-03-31T06:29:44.044Z,6.95
2023-03-31T06:32:11.893Z,10.93
2023-03-31T06:34:39.134Z,11.55
2023-03-31T06:37:06.644Z,14.43
2023-03-31T06:39:33.748Z,11.27
2023-03-31T06:42:01.670Z,11.48
2023-03-31T06:44:29.545Z,11.32
2023-03-31T06:47:00.227Z,9.70
2023-03-31T06:49:29.438Z,12.68
2023-03-31T06:51:57.697Z,14.75
2023-03-31T06:54:26.865Z,12.40
2023-03-31T06:56:53.872Z,11.23
2023-03-31T06:59:20.953Z,12.00
2023-03-31T07:01:52.705Z,10.45
2023-03-31T07:04:19.821Z,10.82
2023-03-31T07:06:47.589Z,15.15
2023-03-31T07:09:15.639Z,11.02
2023-03-31T07:11:42.479Z,11.23
2023-03-31T07:14:10.656Z,8.30
2023-03-31T07:22:11.063Z,10.93
2023-03-31T07:24:44.269Z,11.65
2023-03-31T07:27:12.720Z,17.02
2023-03-31T07:29:44.464Z,13.95
2023-03-31T07:32:11.366Z,13.63
2023-03-31T07:34:39.250Z,8.93
2023-03-31T07:37:06.268Z,10.77
2023-03-31T07:39:37.146Z,14.45
2023-03-31T07:42:04.759Z,10.60
2023-03-31T07:44:34.107Z,12.38
2023-03-31T07:47:07.166Z,12.43
2023-03-31T07:49:35.269Z,13.80
2023-03-31T07:52:04.266Z,8.88
2023-03-31T07:54:31.356Z,10.18
2023-03-31T07:57:04.044Z,10.05
2023-03-31T07:59:33.632Z,6.68
2023-03-31T08:02:01.482Z,9.88
2023-03-31T08:04:28.490Z,10.73
2023-03-31T08:06:55.217Z,8.30
2023-03-31T08:09:24.017Z,9.75
2023-03-31T08:11:51.050Z,12.80
2023-03-31T08:14:27.224Z,10.57
2023-03-31T08:17:01.737Z,10.73
2023-03-31T08:19:29.766Z,10.98
2023-03-31T08:21:58.103Z,15.10
2023-03-31T08:24:24.778Z,16.33
2023-03-31T08:26:54.168Z,14.27
2023-03-31T08:29:29.582Z,12.63
2023-03-31T08:31:57.812Z,10.60
2023-03-31T08:34:24.755Z,13.60
2023-03-31T08:37:05.621Z,11.77
2023-03-31T08:39:33.940Z,12.20
2023-03-31T08:42:08.171Z,10.75
2023-03-31T08:44:42.973Z,11.30
2023-03-31T08:47:21.412Z,8.35
2023-03-31T08:50:05.073Z,7.60
2023-03-31T08:52:41.709Z,9.48
2023-03-31T08:55:18.018Z,10.88
2023-03-31T08:57:51.954Z,8.30
2023-03-31T09:00:24.194Z,12.35
2023-03-31T09:03:07.291Z,9.30
2023-03-31T09:05:57.255Z,9.63
2023-03-31T09:08:34.098Z,8.82
2023-03-31T09:11:14.353Z,7.97
2023-03-31T09:14:25.464Z,8.63
2023-03-31T09:17:09.104Z,9.95
2023-03-31T09:19:43.437Z,9.38
2023-03-31T09:22:25.749Z,6.43
2023-03-31T09:25:17.560Z,7.65
2023-03-31T09:27:44.971Z,9.27
2023-03-31T09:30:28.074Z,8.55
2023-03-31T09:33:23.003Z,6.20
2023-03-31T09:35:52.082Z,6.63
2023-03-31T09:38:21.125Z,7.40
2023-03-31T09:41:00.255Z,8.27
2023-03-31T09:43:33.984Z,6.65
2023-03-31T09:46:09.203Z,5.95
2023-03-31T09:48:44.513Z,8.93
2023-03-31T09:51:24.649Z,4.93
2023-03-31T09:54:09.478Z,8.50
2023-03-31T09:56:44.551Z,9.43
2023-03-31T09:59:25.370Z,6.45
2023-03-31T10:04:46.611Z,8.80
2023-03-31T10:07:14.075Z,8.27
2023-03-31T10:12:31.665Z,7.05
2023-03-31T10:15:21.845Z,11.45
2023-03-31T10:20:58.488Z,10.07
2023-03-31T10:23:35.995Z,12.15
2023-03-31T10:26:17.854Z,8.77
2023-03-31T10:28:44.879Z,8.30
2023-03-31T10:31:12.111Z,13.23
2023-03-31T10:33:45.220Z,11.50
2023-03-31T10:36:28.542Z,11.05
2023-03-31T10:39:00.559Z,3.58
2023-03-31T10:41:33.042Z,4.50
2023-03-31T10:44:05.748Z,4.30
2023-03-31T10:46:55.749Z,9.57
2023-03-31T10:49:28.486Z,6.72
2023-03-31T10:51:59.058Z,7.88
2023-03-31T10:54:30.619Z,8.55
2023-03-31T11:01:01.720Z,6.65
2023-03-31T11:03:45.901Z,7.50
2023-03-31T11:07:12.459Z,5.13
2023-03-31T11:13:19.724Z,7.15
2023-03-31T11:16:29.055Z,3.88
2023-03-31T11:19:04.090Z,5.30
2023-03-31T11:21:41.560Z,3.03
2023-03-31T11:24:32.613Z,4.53
2023-03-31T11:30:44.989Z,1.42
2023-03-31T11:33:56.123Z,5.22
2023-03-31T11:36:37.178Z,3.33
2023-03-31T11:39:15.143Z,5.35
2023-03-31T11:41:57.551Z,6.47
2023-03-31T11:44:43.486Z,5.53
2023-03-31T11:47:19.304Z,7.20
2023-03-31T11:49:54.204Z,7.18
2023-03-31T11:52:37.154Z,6.05
2023-03-31T11:55:27.818Z,9.35
2023-03-31T11:57:59.216Z,8.02
2023-03-31T12:00:49.876Z,9.80
2023-03-31T12:03:24.051Z,9.98
2023-03-31T12:06:24.824Z,10.68
2023-03-31T12:09:30.576Z,11.93
2023-03-31T12:12:21.197Z,5.75
2023-03-31T12:17:43.228Z,11.85
2023-03-31T12:20:38.241Z,9.10
2023-03-31T12:23:11.470Z,11.30
2023-03-31T12:25:58.174Z,10.00
2023-03-31T12:28:32.363Z,15.57
2023-03-31T12:31:02.569Z,13.52
2023-03-31T12:33:34.264Z,15.02
2023-03-31T12:36:15.841Z,14.93
2023-03-31T12:39:23.078Z,8.10
2023-03-31T12:42:14.791Z,2.60
2023-03-31T12:45:18.505Z,5.88
2023-03-31T12:48:06.413Z,6.20
2023-03-31T12:50:57.428Z,9.77
2023-03-31T12:53:52.192Z,7.28
2023-03-31T12:56:19.669Z,7.97
2023-03-31T12:58:47.247Z,8.63
2023-03-31T13:01:24.341Z,6.13
2023-03-31T13:03:54.640Z,10.18
2023-03-31T13:06:33.981Z,8.48
2023-03-31T13:09:17.840Z,4.03
2023-03-31T13:11:58.297Z,6.07
2023-03-31T13:14:46.272Z,3.63
2023-03-31T13:17:52.134Z,4.55
2023-03-31T13:20:37.886Z,10.07
2023-03-31T13:23:27.543Z,5.65
2023-03-31T13:26:00.387Z,9.07
2023-03-31T13:28:35.647Z,4.55
2023-03-31T13:31:08.387Z,5.13
2023-03-31T13:33:41.525Z,8.57
2023-03-31T13:36:41.770Z,7.55
2023-03-31T13:44:57.383Z,4.55
2023-03-31T13:48:03.209Z,6.03
2023-03-31T13:50:37.845Z,4.10
2023-03-31T13:53:32.684Z,2.25
2023-03-31T13:56:18.215Z,3.03
2023-03-31T13:59:11.783Z,2.35
2023-03-31T14:02:19.069Z,1.05
2023-03-31T14:05:14.195Z,1.52
2023-03-31T14:07:50.371Z,1.90
2023-03-31T14:10:30.442Z,2.63
2023-03-31T14:13:10.999Z,1.83
2023-03-31T14:15:53.197Z,3.38
2023-03-31T14:21:21.786Z,4.57
2023-03-31T14:23:54.661Z,3.42
2023-03-31T14:26:36.992Z,2.85
2023-03-31T14:29:30.466Z,2.63
2023-03-31T14:32:29.197Z,4.88
2023-03-31T14:37:44.525Z,2.92
2023-03-31T14:40:16.835Z,1.55
2023-03-31T14:42:54.418Z,2.08
2023-03-31T14:45:27.897Z,2.65
2023-03-31T14:48:01.316Z,4.70
2023-03-31T14:50:37.139Z,5.22
2023-03-31T14:55:58.582Z,4.22
2023-03-31T15:01:31.820Z,6.55
2023-03-31T15:10:03.334Z,3.17
2023-03-31T15:12:45.432Z,1.98
2023-03-31T15:18:28.957Z,4.78
2023-03-31T15:20:58.996Z,5.78
2023-03-31T15:23:30.082Z,4.10
2023-03-31T15:32:23.416Z,2.23
2023-03-31T15:35:21.024Z,2.67
2023-03-31T15:40:44.722Z,5.10
2023-03-31T15:43:55.880Z,4.57
2023-03-31T15:47:04.055Z,4.32
2023-03-31T15:52:42.465Z,4.03
2023-03-31T15:55:45.315Z,6.97
2023-03-31T16:01:07.714Z,5.22
2023-03-31T16:07:05.796Z,4.95
2023-03-31T16:17:31.446Z,7.57
2023-03-31T16:20:30.552Z,7.70
2023-03-31T16:23:04.012Z,9.15
2023-03-31T16:28:38.512Z,7.70
2023-03-31T16:34:19.967Z,8.18
2023-03-31T16:36:54.169Z,8.35
2023-03-31T16:39:33.294Z,6.40
2023-03-31T16:42:35.164Z,5.40
2023-03-31T16:48:16.767Z,8.13
2023-03-31T16:51:12.547Z,9.48
2023-03-31T16:54:20.077Z,3.85
2023-03-31T16:56:58.288Z,9.85
2023-03-31T17:02:32.299Z,6.00
2023-03-31T17:05:12.754Z,6.60
2023-03-31T17:07:51.693Z,5.57
2023-03-31T17:10:34.468Z,8.85
2023-03-31T17:13:17.828Z,7.78
2023-03-31T17:16:01.440Z,7.70
2023-03-31T17:33:49.830Z,6.68
2023-03-31T17:48:48.286Z,12.70
2023-03-31T17:54:16.888Z,10.20
2023-03-31T17:56:47.228Z,9.85
2023-03-31T17:59:20.426Z,7.03
2023-03-31T18:02:16.523Z,12.25
2023-03-31T18:04:56.413Z,8.00
2023-03-31T18:07:44.189Z,12.88
2023-03-31T18:13:01.188Z,6.30
2023-03-31T18:15:28.193Z,10.80
2023-03-31T18:17:55.343Z,9.75
2023-03-31T18:20:31.025Z,12.23
2023-03-31T18:23:01.555Z,10.27
2023-03-31T18:25:30.881Z,7.47
2023-03-31T18:27:59.184Z,6.78
2023-03-31T18:30:30.151Z,6.38
2023-03-31T18:32:58.822Z,7.85
2023-03-31T18:35:28.098Z,11.02
2023-03-31T18:37:58.141Z,7.47
2023-03-31T18:40:24.780Z,8.70
2023-03-31T18:42:52.537Z,7.85
2023-03-31T18:45:22.353Z,9.82
2023-03-31T18:50:41.434Z,8.45
2023-03-31T18:53:09.336Z,8.43
2023-03-31T18:55:37.636Z,6.95
2023-03-31T18:58:04.627Z,5.88
2023-03-31T19:00:37.426Z,6.75
2023-03-31T19:03:05.949Z,7.78
2023-03-31T19:05:32.937Z,7.25
2023-03-31T19:08:00.801Z,4.63
2023-03-31T19:10:30.953Z,8.23
2023-03-31T19:13:01.542Z,6.78
2023-03-31T19:15:36.968Z,10.32
2023-03-31T19:18:14.347Z,6.93
2023-03-31T19:20:45.923Z,7.00
2023-03-31T19:23:20.094Z,6.22
2023-03-31T19:28:40.678Z,7.55
2023-03-31T19:31:17.554Z,7.35
2023-03-31T19:36:49.627Z,7.35
2023-03-31T19:43:21.434Z,6.70
2023-03-31T19:45:26.101Z,3.92
2023-03-31T19:51:23.309Z,5.15
2023-03-31T20:02:34.163Z,6.47
2023-03-31T20:05:13.124Z,5.80
2023-03-31T20:08:10.830Z,7.95
2023-03-31T21:26:24.684Z,4.65
2023-03-31T21:32:23.770Z,8.70
2023-03-31T21:45:21.045Z,6.88
2023-03-31T21:47:41.854Z,4.30
2023-03-31T22:08:29.810Z,5.20
2023-03-31T22:20:10.537Z,5.82
2023-03-31T22:22:43.706Z,5.97
2023-03-31T22:28:07.082Z,5.28
2023-03-31T23:03:06.198Z,5.80
2023-03-31T23:05:47.054Z,5.43
2023-03-31T23:08:18.497Z,4.45
2023-03-31T23:11:02.784Z,4.45
2023-03-31T23:13:34.524Z,3.08
2023-03-31T23:16:20.396Z,5.45
2023-03-31T23:19:01.154Z,4.68
2023-03-31T23:21:38.744Z,5.03
2023-03-31T23:24:06.207Z,8.93
2023-03-31T23:26:35.015Z,9.13
2023-03-31T23:29:06.097Z,5.00
2023-03-31T23:31:39.086Z,5.50
2023-03-31T23:34:10.930Z,4.82
2023-03-31T23:36:38.852Z,3.42
2023-03-31T23:39:08.651Z,4.03
2023-03-31T23:41:44.979Z,6.28
2023-03-31T23:47:47.958Z,5.10
2023-03-31T23:50:23.732Z,5.90
2023-03-31T23:56:09.586Z,6.82
2023-03-31T23:58:41.072Z,5.95
